sensor_id;sensor_type;location;lat;lon;timestamp;temperature;humidity
22787;DHT22;63134;52.020;4.714;2022-11-13T00:00:30;9.40;92.60
22787;DHT22;63134;52.020;4.714;2022-11-13T00:03:35;9.40;92.70
22787;DHT22;63134;52.020;4.714;2022-11-13T00:06:42;9.40;92.60
22787;DHT22;63134;52.020;4.714;2022-11-13T00:09:46;9.40;92.70
22787;DHT22;63134;52.020;4.714;2022-11-13T00:12:50;9.30;92.50
22787;DHT22;63134;52.020;4.714;2022-11-13T00:16:03;9.30;92.70
22787;DHT22;63134;52.020;4.714;2022-11-13T00:19:08;9.30;92.80
22787;DHT22;63134;52.020;4.714;2022-11-13T00:22:12;9.30;92.80
22787;DHT22;63134;52.020;4.714;2022-11-13T00:25:17;9.30;92.90
22787;DHT22;63134;52.020;4.714;2022-11-13T00:28:24;9.40;92.90
22787;DHT22;63134;52.020;4.714;2022-11-13T00:31:29;9.30;92.90
22787;DHT22;63134;52.020;4.714;2022-11-13T00:34:34;9.30;92.90
22787;DHT22;63134;52.020;4.714;2022-11-13T00:37:53;9.30;92.90
22787;DHT22;63134;52.020;4.714;2022-11-13T00:40:58;9.20;92.90
22787;DHT22;63134;52.020;4.714;2022-11-13T00:44:05;9.20;93.00
22787;DHT22;63134;52.020;4.714;2022-11-13T00:47:15;9.20;93.00
22787;DHT22;63134;52.020;4.714;2022-11-13T00:50:19;9.20;93.00
22787;DHT22;63134;52.020;4.714;2022-11-13T00:53:23;9.20;93.10
22787;DHT22;63134;52.020;4.714;2022-11-13T00:56:28;9.20;93.20
22787;DHT22;63134;52.020;4.714;2022-11-13T00:59:32;9.20;93.30
22787;DHT22;63134;52.020;4.714;2022-11-13T01:02:37;9.20;93.20
22787;DHT22;63134;52.020;4.714;2022-11-13T01:05:42;9.20;93.10
22787;DHT22;63134;52.020;4.714;2022-11-13T01:08:48;9.20;93.20
22787;DHT22;63134;52.020;4.714;2022-11-13T01:11:53;9.20;93.20
22787;DHT22;63134;52.020;4.714;2022-11-13T01:14:58;9.20;93.20
22787;DHT22;63134;52.020;4.714;2022-11-13T01:18:02;9.10;93.10
22787;DHT22;63134;52.020;4.714;2022-11-13T01:21:10;9.10;93.30
22787;DHT22;63134;52.020;4.714;2022-11-13T01:24:14;9.10;93.20
22787;DHT22;63134;52.020;4.714;2022-11-13T01:27:19;9.10;93.10
22787;DHT22;63134;52.020;4.714;2022-11-13T01:30:23;9.10;93.30
22787;DHT22;63134;52.020;4.714;2022-11-13T01:33:31;9.10;93.30
22787;DHT22;63134;52.020;4.714;2022-11-13T01:36:35;9.10;93.30
22787;DHT22;63134;52.020;4.714;2022-11-13T01:39:40;9.10;93.30
22787;DHT22;63134;52.020;4.714;2022-11-13T01:42:47;9.10;93.40
22787;DHT22;63134;52.020;4.714;2022-11-13T01:52:25;8.90;93.20
22787;DHT22;63134;52.020;4.714;2022-11-13T01:55:30;8.90;93.20
22787;DHT22;63134;52.020;4.714;2022-11-13T01:58:38;8.80;93.20
22787;DHT22;63134;52.020;4.714;2022-11-13T02:01:43;8.80;93.20
22787;DHT22;63134;52.020;4.714;2022-11-13T02:04:47;8.80;93.20
22787;DHT22;63134;52.020;4.714;2022-11-13T02:07:52;8.70;93.10
22787;DHT22;63134;52.020;4.714;2022-11-13T02:10:56;8.80;93.20
22787;DHT22;63134;52.020;4.714;2022-11-13T02:14:01;8.70;93.20
22787;DHT22;63134;52.020;4.714;2022-11-13T02:17:10;8.70;93.30
22787;DHT22;63134;52.020;4.714;2022-11-13T02:20:24;8.70;93.30
22787;DHT22;63134;52.020;4.714;2022-11-13T02:23:45;8.70;93.40
22787;DHT22;63134;52.020;4.714;2022-11-13T02:26:53;8.70;93.40
22787;DHT22;63134;52.020;4.714;2022-11-13T02:30:09;8.70;93.40
22787;DHT22;63134;52.020;4.714;2022-11-13T02:33:28;8.60;93.40
22787;DHT22;63134;52.020;4.714;2022-11-13T02:36:33;8.70;93.60
22787;DHT22;63134;52.020;4.714;2022-11-13T02:39:39;8.60;93.50
22787;DHT22;63134;52.020;4.714;2022-11-13T02:42:44;8.60;93.50
22787;DHT22;63134;52.020;4.714;2022-11-13T02:45:48;8.60;93.50
22787;DHT22;63134;52.020;4.714;2022-11-13T02:48:53;8.60;93.60
22787;DHT22;63134;52.020;4.714;2022-11-13T02:51:57;8.60;93.60
22787;DHT22;63134;52.020;4.714;2022-11-13T02:55:02;8.60;93.50
22787;DHT22;63134;52.020;4.714;2022-11-13T02:58:07;8.60;93.60
22787;DHT22;63134;52.020;4.714;2022-11-13T03:01:11;8.50;93.50
22787;DHT22;63134;52.020;4.714;2022-11-13T03:04:15;8.50;93.70
22787;DHT22;63134;52.020;4.714;2022-11-13T03:07:20;8.60;93.90
22787;DHT22;63134;52.020;4.714;2022-11-13T03:10:25;8.60;93.90
22787;DHT22;63134;52.020;4.714;2022-11-13T03:13:29;8.60;93.90
22787;DHT22;63134;52.020;4.714;2022-11-13T03:16:35;8.70;94.10
22787;DHT22;63134;52.020;4.714;2022-11-13T03:19:40;8.60;94.20
22787;DHT22;63134;52.020;4.714;2022-11-13T03:22:44;8.60;94.30
22787;DHT22;63134;52.020;4.714;2022-11-13T03:25:48;8.60;94.40
22787;DHT22;63134;52.020;4.714;2022-11-13T03:28:53;8.70;94.40
22787;DHT22;63134;52.020;4.714;2022-11-13T03:31:57;8.70;94.40
22787;DHT22;63134;52.020;4.714;2022-11-13T03:35:02;8.60;94.20
22787;DHT22;63134;52.020;4.714;2022-11-13T03:38:06;8.60;94.20
22787;DHT22;63134;52.020;4.714;2022-11-13T03:41:10;8.50;94.10
22787;DHT22;63134;52.020;4.714;2022-11-13T03:44:17;8.50;94.10
22787;DHT22;63134;52.020;4.714;2022-11-13T03:47:22;8.50;94.10
22787;DHT22;63134;52.020;4.714;2022-11-13T03:50:26;8.50;94.10
22787;DHT22;63134;52.020;4.714;2022-11-13T03:53:31;8.50;94.10
22787;DHT22;63134;52.020;4.714;2022-11-13T03:56:35;8.50;94.10
22787;DHT22;63134;52.020;4.714;2022-11-13T03:59:39;8.40;94.00
22787;DHT22;63134;52.020;4.714;2022-11-13T04:02:44;8.40;94.10
22787;DHT22;63134;52.020;4.714;2022-11-13T04:05:49;8.40;94.00
22787;DHT22;63134;52.020;4.714;2022-11-13T04:08:53;8.40;94.10
22787;DHT22;63134;52.020;4.714;2022-11-13T04:11:58;8.40;94.10
22787;DHT22;63134;52.020;4.714;2022-11-13T04:15:02;8.40;94.00
22787;DHT22;63134;52.020;4.714;2022-11-13T04:18:10;8.40;94.10
22787;DHT22;63134;52.020;4.714;2022-11-13T04:21:14;8.30;94.10
22787;DHT22;63134;52.020;4.714;2022-11-13T04:24:21;8.30;94.10
22787;DHT22;63134;52.020;4.714;2022-11-13T04:27:26;8.30;94.20
22787;DHT22;63134;52.020;4.714;2022-11-13T04:30:30;8.40;94.30
22787;DHT22;63134;52.020;4.714;2022-11-13T04:33:35;8.30;94.20
22787;DHT22;63134;52.020;4.714;2022-11-13T04:36:39;8.30;94.30
22787;DHT22;63134;52.020;4.714;2022-11-13T04:39:43;8.30;94.30
22787;DHT22;63134;52.020;4.714;2022-11-13T04:42:48;8.30;94.30
22787;DHT22;63134;52.020;4.714;2022-11-13T04:45:55;8.30;94.50
22787;DHT22;63134;52.020;4.714;2022-11-13T04:48:59;8.40;94.50
22787;DHT22;63134;52.020;4.714;2022-11-13T04:52:07;8.40;94.50
22787;DHT22;63134;52.020;4.714;2022-11-13T04:55:12;8.30;94.50
22787;DHT22;63134;52.020;4.714;2022-11-13T04:58:16;8.30;94.50
22787;DHT22;63134;52.020;4.714;2022-11-13T05:01:21;8.30;94.40
22787;DHT22;63134;52.020;4.714;2022-11-13T05:04:25;8.30;94.40
22787;DHT22;63134;52.020;4.714;2022-11-13T05:07:29;8.30;94.40
22787;DHT22;63134;52.020;4.714;2022-11-13T05:10:34;8.20;94.20
22787;DHT22;63134;52.020;4.714;2022-11-13T05:13:38;8.20;94.20
22787;DHT22;63134;52.020;4.714;2022-11-13T05:16:43;8.10;94.10
22787;DHT22;63134;52.020;4.714;2022-11-13T05:19:47;8.10;94.10
22787;DHT22;63134;52.020;4.714;2022-11-13T05:22:52;8.00;94.10
22787;DHT22;63134;52.020;4.714;2022-11-13T05:26:02;8.00;94.10
22787;DHT22;63134;52.020;4.714;2022-11-13T05:29:07;7.90;94.00
22787;DHT22;63134;52.020;4.714;2022-11-13T05:32:11;7.90;94.10
22787;DHT22;63134;52.020;4.714;2022-11-13T05:35:19;7.80;94.50
22787;DHT22;63134;52.020;4.714;2022-11-13T05:38:23;7.80;94.10
22787;DHT22;63134;52.020;4.714;2022-11-13T05:41:31;7.80;94.20
22787;DHT22;63134;52.020;4.714;2022-11-13T05:44:36;7.80;94.20
22787;DHT22;63134;52.020;4.714;2022-11-13T05:47:40;7.70;94.10
22787;DHT22;63134;52.020;4.714;2022-11-13T05:50:45;7.70;94.10
22787;DHT22;63134;52.020;4.714;2022-11-13T05:53:50;7.60;94.00
22787;DHT22;63134;52.020;4.714;2022-11-13T05:56:53;7.60;94.20
22787;DHT22;63134;52.020;4.714;2022-11-13T05:59:58;7.60;94.10
22787;DHT22;63134;52.020;4.714;2022-11-13T06:03:02;7.60;94.10
22787;DHT22;63134;52.020;4.714;2022-11-13T06:06:10;7.60;94.10
22787;DHT22;63134;52.020;4.714;2022-11-13T06:09:17;7.50;94.10
22787;DHT22;63134;52.020;4.714;2022-11-13T06:12:28;7.60;94.40
22787;DHT22;63134;52.020;4.714;2022-11-13T06:15:35;7.60;94.50
22787;DHT22;63134;52.020;4.714;2022-11-13T06:18:41;7.70;94.60
22787;DHT22;63134;52.020;4.714;2022-11-13T06:21:49;7.70;94.70
22787;DHT22;63134;52.020;4.714;2022-11-13T06:24:53;7.80;94.80
22787;DHT22;63134;52.020;4.714;2022-11-13T06:27:57;7.80;94.80
22787;DHT22;63134;52.020;4.714;2022-11-13T06:31:09;7.90;95.10
22787;DHT22;63134;52.020;4.714;2022-11-13T06:34:14;7.90;94.90
22787;DHT22;63134;52.020;4.714;2022-11-13T06:37:18;8.00;94.90
22787;DHT22;63134;52.020;4.714;2022-11-13T06:40:23;8.00;95.00
22787;DHT22;63134;52.020;4.714;2022-11-13T06:43:27;8.10;94.90
22787;DHT22;63134;52.020;4.714;2022-11-13T06:46:32;8.20;94.90
22787;DHT22;63134;52.020;4.714;2022-11-13T06:49:39;8.20;94.80
22787;DHT22;63134;52.020;4.714;2022-11-13T06:52:44;8.20;94.70
22787;DHT22;63134;52.020;4.714;2022-11-13T06:55:49;8.20;94.60
22787;DHT22;63134;52.020;4.714;2022-11-13T06:58:53;8.20;94.50
22787;DHT22;63134;52.020;4.714;2022-11-13T07:01:59;8.20;94.40
22787;DHT22;63134;52.020;4.714;2022-11-13T07:05:03;8.20;94.40
22787;DHT22;63134;52.020;4.714;2022-11-13T07:08:07;8.20;94.30
22787;DHT22;63134;52.020;4.714;2022-11-13T07:11:18;8.20;94.20
22787;DHT22;63134;52.020;4.714;2022-11-13T07:14:23;8.20;94.20
22787;DHT22;63134;52.020;4.714;2022-11-13T07:17:30;8.20;94.10
22787;DHT22;63134;52.020;4.714;2022-11-13T07:20:34;8.20;94.10
22787;DHT22;63134;52.020;4.714;2022-11-13T07:23:38;8.20;94.30
22787;DHT22;63134;52.020;4.714;2022-11-13T07:26:46;8.30;94.40
22787;DHT22;63134;52.020;4.714;2022-11-13T07:29:54;8.40;94.30
22787;DHT22;63134;52.020;4.714;2022-11-13T07:33:06;8.50;94.30
22787;DHT22;63134;52.020;4.714;2022-11-13T07:36:10;8.50;94.30
22787;DHT22;63134;52.020;4.714;2022-11-13T07:39:17;8.70;94.30
22787;DHT22;63134;52.020;4.714;2022-11-13T07:42:22;8.70;94.30
22787;DHT22;63134;52.020;4.714;2022-11-13T07:45:27;8.80;94.30
22787;DHT22;63134;52.020;4.714;2022-11-13T07:48:31;8.80;94.20
22787;DHT22;63134;52.020;4.714;2022-11-13T07:51:36;8.80;94.10
22787;DHT22;63134;52.020;4.714;2022-11-13T07:54:40;8.90;94.00
22787;DHT22;63134;52.020;4.714;2022-11-13T07:57:45;8.90;93.90
22787;DHT22;63134;52.020;4.714;2022-11-13T08:01:03;8.90;94.00
22787;DHT22;63134;52.020;4.714;2022-11-13T08:04:08;9.00;94.00
22787;DHT22;63134;52.020;4.714;2022-11-13T08:07:12;9.00;93.80
22787;DHT22;63134;52.020;4.714;2022-11-13T08:10:18;9.10;93.90
22787;DHT22;63134;52.020;4.714;2022-11-13T08:13:23;9.10;93.90
22787;DHT22;63134;52.020;4.714;2022-11-13T08:16:27;9.20;93.90
22787;DHT22;63134;52.020;4.714;2022-11-13T08:19:32;9.20;93.80
22787;DHT22;63134;52.020;4.714;2022-11-13T08:22:36;9.30;93.80
22787;DHT22;63134;52.020;4.714;2022-11-13T08:25:41;9.30;93.80
22787;DHT22;63134;52.020;4.714;2022-11-13T08:28:47;9.40;93.90
22787;DHT22;63134;52.020;4.714;2022-11-13T08:31:52;9.50;93.90
22787;DHT22;63134;52.020;4.714;2022-11-13T08:34:56;9.60;93.90
22787;DHT22;63134;52.020;4.714;2022-11-13T08:38:05;9.70;93.90
22787;DHT22;63134;52.020;4.714;2022-11-13T08:41:10;9.80;93.80
22787;DHT22;63134;52.020;4.714;2022-11-13T08:44:14;9.80;93.90
22787;DHT22;63134;52.020;4.714;2022-11-13T08:47:18;9.90;93.70
22787;DHT22;63134;52.020;4.714;2022-11-13T08:50:23;10.00;93.60
22787;DHT22;63134;52.020;4.714;2022-11-13T08:53:28;10.00;93.50
22787;DHT22;63134;52.020;4.714;2022-11-13T08:56:32;10.10;93.50
22787;DHT22;63134;52.020;4.714;2022-11-13T08:59:37;10.10;93.40
22787;DHT22;63134;52.020;4.714;2022-11-13T09:02:43;10.20;93.30
22787;DHT22;63134;52.020;4.714;2022-11-13T09:05:56;10.30;93.20
22787;DHT22;63134;52.020;4.714;2022-11-13T09:09:01;10.30;93.20
22787;DHT22;63134;52.020;4.714;2022-11-13T09:12:08;10.30;93.00
22787;DHT22;63134;52.020;4.714;2022-11-13T09:15:15;10.40;93.30
22787;DHT22;63134;52.020;4.714;2022-11-13T09:18:27;10.50;92.80
22787;DHT22;63134;52.020;4.714;2022-11-13T09:21:34;10.50;92.80
22787;DHT22;63134;52.020;4.714;2022-11-13T09:24:38;10.50;92.70
22787;DHT22;63134;52.020;4.714;2022-11-13T09:27:42;10.60;92.70
22787;DHT22;63134;52.020;4.714;2022-11-13T09:30:47;10.70;92.60
22787;DHT22;63134;52.020;4.714;2022-11-13T09:33:52;10.80;92.50
22787;DHT22;63134;52.020;4.714;2022-11-13T09:36:56;10.80;92.30
22787;DHT22;63134;52.020;4.714;2022-11-13T09:40:06;10.90;92.30
22787;DHT22;63134;52.020;4.714;2022-11-13T09:43:22;10.90;92.00
22787;DHT22;63134;52.020;4.714;2022-11-13T09:46:54;11.00;92.00
22787;DHT22;63134;52.020;4.714;2022-11-13T09:50:21;11.10;92.00
22787;DHT22;63134;52.020;4.714;2022-11-13T09:53:29;11.20;92.00
22787;DHT22;63134;52.020;4.714;2022-11-13T09:56:41;11.20;91.80
22787;DHT22;63134;52.020;4.714;2022-11-13T10:00:03;11.30;92.20
22787;DHT22;63134;52.020;4.714;2022-11-13T10:03:14;11.40;91.70
22787;DHT22;63134;52.020;4.714;2022-11-13T10:07:01;11.50;91.60
22787;DHT22;63134;52.020;4.714;2022-11-13T10:13:30;11.60;91.30
22787;DHT22;63134;52.020;4.714;2022-11-13T10:23:42;11.90;90.80
22787;DHT22;63134;52.020;4.714;2022-11-13T10:26:47;12.10;90.70
22787;DHT22;63134;52.020;4.714;2022-11-13T10:29:51;12.10;90.70
22787;DHT22;63134;52.020;4.714;2022-11-13T10:33:03;12.30;90.50
22787;DHT22;63134;52.020;4.714;2022-11-13T10:36:34;12.40;90.40
22787;DHT22;63134;52.020;4.714;2022-11-13T10:39:44;12.60;90.40
22787;DHT22;63134;52.020;4.714;2022-11-13T10:42:49;12.80;90.30
22787;DHT22;63134;52.020;4.714;2022-11-13T10:45:59;12.90;90.10
22787;DHT22;63134;52.020;4.714;2022-11-13T10:49:12;13.10;90.00
22787;DHT22;63134;52.020;4.714;2022-11-13T10:52:23;13.30;89.70
22787;DHT22;63134;52.020;4.714;2022-11-13T10:55:38;13.70;89.20
22787;DHT22;63134;52.020;4.714;2022-11-13T10:58:43;14.20;88.20
22787;DHT22;63134;52.020;4.714;2022-11-13T11:01:47;14.70;86.40
22787;DHT22;63134;52.020;4.714;2022-11-13T11:05:03;15.40;85.00
22787;DHT22;63134;52.020;4.714;2022-11-13T11:08:09;16.00;84.00
22787;DHT22;63134;52.020;4.714;2022-11-13T11:11:17;16.90;83.40
22787;DHT22;63134;52.020;4.714;2022-11-13T11:18:11;18.40;80.80
22787;DHT22;63134;52.020;4.714;2022-11-13T11:21:27;19.30;79.20
22787;DHT22;63134;52.020;4.714;2022-11-13T11:24:39;20.30;76.30
22787;DHT22;63134;52.020;4.714;2022-11-13T11:27:47;21.20;71.60
22787;DHT22;63134;52.020;4.714;2022-11-13T11:31:25;22.10;68.20
22787;DHT22;63134;52.020;4.714;2022-11-13T11:34:32;22.90;63.10
22787;DHT22;63134;52.020;4.714;2022-11-13T11:37:59;23.80;57.80
22787;DHT22;63134;52.020;4.714;2022-11-13T11:41:12;24.70;54.80
22787;DHT22;63134;52.020;4.714;2022-11-13T11:44:38;25.40;51.80
22787;DHT22;63134;52.020;4.714;2022-11-13T11:47:46;26.10;48.00
22787;DHT22;63134;52.020;4.714;2022-11-13T11:51:29;26.90;46.40
22787;DHT22;63134;52.020;4.714;2022-11-13T11:55:09;27.60;42.30
22787;DHT22;63134;52.020;4.714;2022-11-13T12:09:35;30.50;34.10
22787;DHT22;63134;52.020;4.714;2022-11-13T12:13:08;30.40;32.50
22787;DHT22;63134;52.020;4.714;2022-11-13T12:16:26;30.00;31.70
22787;DHT22;63134;52.020;4.714;2022-11-13T12:19:44;30.40;32.40
22787;DHT22;63134;52.020;4.714;2022-11-13T12:26:28;29.70;30.40
22787;DHT22;63134;52.020;4.714;2022-11-13T12:29:46;29.20;31.70
22787;DHT22;63134;52.020;4.714;2022-11-13T12:36:10;29.00;32.00
22787;DHT22;63134;52.020;4.714;2022-11-13T12:45:54;31.70;30.20
22787;DHT22;63134;52.020;4.714;2022-11-13T12:49:00;32.60;29.30
22787;DHT22;63134;52.020;4.714;2022-11-13T12:55:27;34.10;27.00
22787;DHT22;63134;52.020;4.714;2022-11-13T12:58:32;34.90;26.10
22787;DHT22;63134;52.020;4.714;2022-11-13T13:01:43;35.50;25.80
22787;DHT22;63134;52.020;4.714;2022-11-13T13:05:08;36.20;25.10
22787;DHT22;63134;52.020;4.714;2022-11-13T13:15:10;37.10;23.70
22787;DHT22;63134;52.020;4.714;2022-11-13T13:21:24;37.30;23.20
22787;DHT22;63134;52.020;4.714;2022-11-13T13:24:33;37.50;22.90
22787;DHT22;63134;52.020;4.714;2022-11-13T13:27:38;37.60;22.70
22787;DHT22;63134;52.020;4.714;2022-11-13T13:34:42;37.90;22.10
22787;DHT22;63134;52.020;4.714;2022-11-13T13:38:03;38.00;21.70
22787;DHT22;63134;52.020;4.714;2022-11-13T13:41:25;38.00;21.60
22787;DHT22;63134;52.020;4.714;2022-11-13T13:47:46;38.20;22.00
22787;DHT22;63134;52.020;4.714;2022-11-13T13:50:52;38.40;21.80
22787;DHT22;63134;52.020;4.714;2022-11-13T13:53:58;38.70;21.70
22787;DHT22;63134;52.020;4.714;2022-11-13T13:57:02;38.80;21.30
22787;DHT22;63134;52.020;4.714;2022-11-13T14:00:14;38.70;21.00
22787;DHT22;63134;52.020;4.714;2022-11-13T14:03:21;38.80;20.80
22787;DHT22;63134;52.020;4.714;2022-11-13T14:06:25;38.80;20.70
22787;DHT22;63134;52.020;4.714;2022-11-13T14:09:30;38.90;20.60
22787;DHT22;63134;52.020;4.714;2022-11-13T14:12:39;38.90;20.50
22787;DHT22;63134;52.020;4.714;2022-11-13T14:15:43;38.80;20.60
22787;DHT22;63134;52.020;4.714;2022-11-13T14:18:48;38.80;20.70
22787;DHT22;63134;52.020;4.714;2022-11-13T14:21:56;38.60;20.70
22787;DHT22;63134;52.020;4.714;2022-11-13T14:25:01;38.30;20.90
22787;DHT22;63134;52.020;4.714;2022-11-13T14:28:11;38.30;20.90
22787;DHT22;63134;52.020;4.714;2022-11-13T14:31:16;38.50;21.10
22787;DHT22;63134;52.020;4.714;2022-11-13T14:34:21;38.50;21.00
22787;DHT22;63134;52.020;4.714;2022-11-13T14:37:32;38.20;20.90
22787;DHT22;63134;52.020;4.714;2022-11-13T14:40:37;38.00;21.00
22787;DHT22;63134;52.020;4.714;2022-11-13T14:43:48;37.70;21.30
22787;DHT22;63134;52.020;4.714;2022-11-13T14:47:03;37.20;21.40
22787;DHT22;63134;52.020;4.714;2022-11-13T14:53:32;36.30;22.30
22787;DHT22;63134;52.020;4.714;2022-11-13T14:56:39;35.80;22.50
22787;DHT22;63134;52.020;4.714;2022-11-13T14:59:46;35.50;22.90
22787;DHT22;63134;52.020;4.714;2022-11-13T15:02:50;35.00;23.30
22787;DHT22;63134;52.020;4.714;2022-11-13T15:05:55;34.30;23.80
22787;DHT22;63134;52.020;4.714;2022-11-13T15:08:59;33.60;24.30
22787;DHT22;63134;52.020;4.714;2022-11-13T15:12:04;33.10;25.00
22787;DHT22;63134;52.020;4.714;2022-11-13T15:15:13;32.60;25.40
22787;DHT22;63134;52.020;4.714;2022-11-13T15:18:19;32.10;25.90
22787;DHT22;63134;52.020;4.714;2022-11-13T15:21:23;30.70;26.60
22787;DHT22;63134;52.020;4.714;2022-11-13T15:24:27;28.90;27.80
22787;DHT22;63134;52.020;4.714;2022-11-13T15:27:32;27.20;29.60
22787;DHT22;63134;52.020;4.714;2022-11-13T15:30:45;25.70;31.70
22787;DHT22;63134;52.020;4.714;2022-11-13T15:33:50;24.50;33.90
22787;DHT22;63134;52.020;4.714;2022-11-13T15:36:54;24.00;35.80
22787;DHT22;63134;52.020;4.714;2022-11-13T15:39:59;23.90;36.90
22787;DHT22;63134;52.020;4.714;2022-11-13T15:43:04;23.70;37.10
22787;DHT22;63134;52.020;4.714;2022-11-13T15:46:13;23.10;37.70
22787;DHT22;63134;52.020;4.714;2022-11-13T15:49:18;22.20;39.10
22787;DHT22;63134;52.020;4.714;2022-11-13T15:52:24;21.30;40.50
22787;DHT22;63134;52.020;4.714;2022-11-13T15:55:30;20.50;42.20
22787;DHT22;63134;52.020;4.714;2022-11-13T15:58:34;19.70;43.80
22787;DHT22;63134;52.020;4.714;2022-11-13T16:01:41;19.10;45.20
22787;DHT22;63134;52.020;4.714;2022-11-13T16:04:45;18.60;46.70
22787;DHT22;63134;52.020;4.714;2022-11-13T16:07:59;18.00;48.00
22787;DHT22;63134;52.020;4.714;2022-11-13T16:11:04;17.60;49.20
22787;DHT22;63134;52.020;4.714;2022-11-13T16:14:09;17.20;50.30
22787;DHT22;63134;52.020;4.714;2022-11-13T16:17:19;16.80;51.30
22787;DHT22;63134;52.020;4.714;2022-11-13T16:20:23;16.40;52.20
22787;DHT22;63134;52.020;4.714;2022-11-13T16:23:28;16.10;53.30
22787;DHT22;63134;52.020;4.714;2022-11-13T16:26:33;15.80;54.10
22787;DHT22;63134;52.020;4.714;2022-11-13T16:29:37;15.50;54.90
22787;DHT22;63134;52.020;4.714;2022-11-13T16:32:42;15.30;55.60
22787;DHT22;63134;52.020;4.714;2022-11-13T16:35:47;15.00;56.30
22787;DHT22;63134;52.020;4.714;2022-11-13T16:38:53;14.80;57.00
22787;DHT22;63134;52.020;4.714;2022-11-13T16:41:58;14.60;57.60
22787;DHT22;63134;52.020;4.714;2022-11-13T16:45:03;14.30;58.20
22787;DHT22;63134;52.020;4.714;2022-11-13T16:48:14;14.10;58.80
22787;DHT22;63134;52.020;4.714;2022-11-13T16:51:19;14.00;59.30
22787;DHT22;63134;52.020;4.714;2022-11-13T16:54:23;13.80;59.70
22787;DHT22;63134;52.020;4.714;2022-11-13T16:57:30;13.70;60.10
22787;DHT22;63134;52.020;4.714;2022-11-13T17:00:34;13.50;60.30
22787;DHT22;63134;52.020;4.714;2022-11-13T17:03:39;13.40;60.90
22787;DHT22;63134;52.020;4.714;2022-11-13T17:06:43;13.30;61.30
22787;DHT22;63134;52.020;4.714;2022-11-13T17:09:47;13.10;61.80
22787;DHT22;63134;52.020;4.714;2022-11-13T17:13:08;13.00;62.40
22787;DHT22;63134;52.020;4.714;2022-11-13T17:16:13;12.80;62.90
22787;DHT22;63134;52.020;4.714;2022-11-13T17:19:17;12.70;63.40
22787;DHT22;63134;52.020;4.714;2022-11-13T17:22:22;12.50;63.80
22787;DHT22;63134;52.020;4.714;2022-11-13T17:25:26;12.40;64.50
22787;DHT22;63134;52.020;4.714;2022-11-13T17:28:31;12.30;65.10
22787;DHT22;63134;52.020;4.714;2022-11-13T17:31:36;12.20;65.80
22787;DHT22;63134;52.020;4.714;2022-11-13T17:34:43;12.00;66.20
22787;DHT22;63134;52.020;4.714;2022-11-13T17:37:47;12.00;66.70
22787;DHT22;63134;52.020;4.714;2022-11-13T17:40:55;11.90;67.00
22787;DHT22;63134;52.020;4.714;2022-11-13T17:43:59;11.80;67.40
22787;DHT22;63134;52.020;4.714;2022-11-13T17:47:06;11.80;67.60
22787;DHT22;63134;52.020;4.714;2022-11-13T17:50:11;11.70;68.00
22787;DHT22;63134;52.020;4.714;2022-11-13T17:53:15;11.60;68.20
22787;DHT22;63134;52.020;4.714;2022-11-13T17:56:20;11.50;68.50
22787;DHT22;63134;52.020;4.714;2022-11-13T17:59:24;11.50;69.30
22787;DHT22;63134;52.020;4.714;2022-11-13T18:02:29;11.40;69.40
22787;DHT22;63134;52.020;4.714;2022-11-13T18:05:34;11.30;69.70
22787;DHT22;63134;52.020;4.714;2022-11-13T18:08:44;11.20;70.10
22787;DHT22;63134;52.020;4.714;2022-11-13T18:11:48;11.10;71.20
22787;DHT22;63134;52.020;4.714;2022-11-13T18:14:53;11.00;71.20
22787;DHT22;63134;52.020;4.714;2022-11-13T18:18:00;11.00;71.50
22787;DHT22;63134;52.020;4.714;2022-11-13T18:21:11;10.90;71.90
22787;DHT22;63134;52.020;4.714;2022-11-13T18:24:26;10.80;72.40
22787;DHT22;63134;52.020;4.714;2022-11-13T18:27:31;10.80;72.60
22787;DHT22;63134;52.020;4.714;2022-11-13T18:30:37;10.70;73.10
22787;DHT22;63134;52.020;4.714;2022-11-13T18:33:43;10.60;73.50
22787;DHT22;63134;52.020;4.714;2022-11-13T18:36:47;10.60;74.10
22787;DHT22;63134;52.020;4.714;2022-11-13T18:39:52;10.60;74.40
22787;DHT22;63134;52.020;4.714;2022-11-13T18:42:56;10.50;74.50
22787;DHT22;63134;52.020;4.714;2022-11-13T18:46:02;10.50;74.50
22787;DHT22;63134;52.020;4.714;2022-11-13T18:49:10;10.40;74.50
22787;DHT22;63134;52.020;4.714;2022-11-13T18:52:14;10.20;74.60
22787;DHT22;63134;52.020;4.714;2022-11-13T18:55:19;10.10;75.00
22787;DHT22;63134;52.020;4.714;2022-11-13T18:58:23;10.10;75.60
22787;DHT22;63134;52.020;4.714;2022-11-13T19:01:29;10.00;75.70
22787;DHT22;63134;52.020;4.714;2022-11-13T19:04:34;9.90;76.00
22787;DHT22;63134;52.020;4.714;2022-11-13T19:07:39;9.90;76.50
22787;DHT22;63134;52.020;4.714;2022-11-13T19:10:43;9.80;76.50
22787;DHT22;63134;52.020;4.714;2022-11-13T19:13:48;9.70;77.00
22787;DHT22;63134;52.020;4.714;2022-11-13T19:16:52;9.70;77.30
22787;DHT22;63134;52.020;4.714;2022-11-13T19:19:57;9.70;77.30
22787;DHT22;63134;52.020;4.714;2022-11-13T19:23:01;9.60;77.60
22787;DHT22;63134;52.020;4.714;2022-11-13T19:26:11;9.60;78.70
22787;DHT22;63134;52.020;4.714;2022-11-13T19:29:16;9.60;78.50
22787;DHT22;63134;52.020;4.714;2022-11-13T19:32:20;9.50;78.50
22787;DHT22;63134;52.020;4.714;2022-11-13T19:35:25;9.50;78.60
22787;DHT22;63134;52.020;4.714;2022-11-13T19:38:30;9.40;78.60
22787;DHT22;63134;52.020;4.714;2022-11-13T19:41:34;9.40;78.70
22787;DHT22;63134;52.020;4.714;2022-11-13T19:44:39;9.20;79.00
22787;DHT22;63134;52.020;4.714;2022-11-13T19:47:43;9.20;79.50
22787;DHT22;63134;52.020;4.714;2022-11-13T19:50:48;9.10;79.60
22787;DHT22;63134;52.020;4.714;2022-11-13T19:53:54;9.10;79.90
22787;DHT22;63134;52.020;4.714;2022-11-13T19:56:58;9.00;80.20
22787;DHT22;63134;52.020;4.714;2022-11-13T20:00:03;9.00;81.20
22787;DHT22;63134;52.020;4.714;2022-11-13T20:03:15;9.00;81.50
22787;DHT22;63134;52.020;4.714;2022-11-13T20:06:19;9.00;81.90
22787;DHT22;63134;52.020;4.714;2022-11-13T20:09:24;9.00;82.90
22787;DHT22;63134;52.020;4.714;2022-11-13T20:12:28;9.00;83.40
22787;DHT22;63134;52.020;4.714;2022-11-13T20:15:33;9.00;84.20
22787;DHT22;63134;52.020;4.714;2022-11-13T20:18:39;9.00;84.30
22787;DHT22;63134;52.020;4.714;2022-11-13T20:21:44;9.00;84.90
22787;DHT22;63134;52.020;4.714;2022-11-13T20:24:49;9.00;85.10
22787;DHT22;63134;52.020;4.714;2022-11-13T20:27:55;9.00;85.20
22787;DHT22;63134;52.020;4.714;2022-11-13T20:31:18;9.00;85.20
22787;DHT22;63134;52.020;4.714;2022-11-13T20:34:23;9.00;85.80
22787;DHT22;63134;52.020;4.714;2022-11-13T20:37:27;9.00;85.80
22787;DHT22;63134;52.020;4.714;2022-11-13T20:40:32;9.00;86.40
22787;DHT22;63134;52.020;4.714;2022-11-13T20:43:37;9.00;86.70
22787;DHT22;63134;52.020;4.714;2022-11-13T20:46:41;9.00;87.10
22787;DHT22;63134;52.020;4.714;2022-11-13T20:49:46;9.00;86.70
22787;DHT22;63134;52.020;4.714;2022-11-13T20:52:51;9.00;87.20
22787;DHT22;63134;52.020;4.714;2022-11-13T20:55:55;8.90;86.90
22787;DHT22;63134;52.020;4.714;2022-11-13T20:59:00;8.90;87.40
22787;DHT22;63134;52.020;4.714;2022-11-13T21:02:08;9.00;88.00